WETTERDATEN

GESTERN
Time Temp. Taup. r.Fe. Windrich Windstärke Windböe Druck 1h Prec. 24h Prec.
00:07 16.7 15.7 94 90 0.3 1.1 1016.1 3.7370 1.1000
00:17 16.6 15.6 94 90 0.3 0.8 1016 3.9390 1.7000
00:27 16.6 15.6 94 90 0.3 1.1 1015.8 3.7370 1.9000
00:36 16.5 15.5 94 57 0.3 0.8 1015.8 3.2320 1.9000
00:47 16.4 15.4 94 90 0.3 1.1 1015.7 2.6260 1.9000
00:57 16.3 15.5 95 90 0.3 1.1 1015.6 1.9190 1.9000
01:07 16.3 15.5 95 90 0.3 1.1 1015.6 0.8080 1.9000
01:17 16.2 15.4 95 90 0.3 0.8 1015.6 0.0000 1.9000
01:28 16.1 15.3 95 90 0.3 0.8 1015.5 0.1010 2.0000
01:37 16.1 15.3 95 90 0.3 0.8 1015.4 0.1010 2.0000
01:47 16 15.2 95 90 0.3 0.8 1015.5 0.1010 2.0000
02:07 15.9 15.1 95 90 0.3 1.1 1015.3 0.1010 2.0000
02:16 15.9 15.1 95 90 0.3 0.8 1015.3 0.1010 2.0000
02:27 15.9 15.3 96 90 0.3 1.1 1015.3 0.0000 2.0000
02:37 15.9 15.3 96 90 0.3 1.1 1015.3 0.0000 2.0000
02:47 15.9 15.3 96 90 0.3 0.8 1015.3 0.0000 2.0000
02:57 15.9 15.3 96 53 0.3 0.8 1015.2 0.0000 2.0000
03:07 15.9 15.3 96 45 0.3 0.8 1015.1 0.0000 2.0000
03:17 15.9 15.3 96 90 0.3 1.1 1015 0.0000 2.0000
03:27 15.9 15.3 96 90 0.3 0.8 1014.8 0.0000 2.0000
03:38 15.9 15.3 96 55 0.3 1.1 1014.8 0.0000 2.0000
03:48 15.9 15.3 96 90 0.3 1.1 1014.7 0.0000 2.0000
04:07 15.9 15.3 96 90 0.3 1.1 1014.6 0.3030 2.3000
04:17 15.8 15.2 96 90 0.3 0.8 1014.5 0.3030 2.3000
04:27 15.9 15.4 97 90 0.3 0.8 1014.5 0.3030 2.3000
04:37 15.9 15.4 97 90 0.3 1.1 1014.5 0.3030 2.3000
04:48 15.8 15.2 96 90 0.3 0.8 1014.4 0.2020 2.3000
04:57 15.8 15.2 96 60 0.3 0.8 1014.3 0.0000 2.3000
05:07 15.8 15.3 97 57 0.3 0.8 1014.3 0.0000 2.3000
05:18 15.8 15.3 97 90 0.3 0.8 1014.3 0.0000 2.3000
05:28 15.8 15.3 97 60 0.3 1.1 1014.3 0.0000 2.3000
05:38 15.7 15.2 97 90 0.3 1.1 1014.4 0.0000 2.3000
05:48 15.7 15.2 97 90 0.3 0.8 1014.3 0.0000 2.3000
05:58 15.7 15.2 97 49 0.3 1.1 1014.4 0.0000 2.3000
06:08 15.7 15.2 97 49 0.3 1.1 1014.4 0.1010 2.4000
06:18 15.7 15.2 97 56 0.3 0.8 1014.5 0.1010 2.4000
06:37 15.6 15.1 97 90 0.3 1.1 1014.7 0.3030 2.6000
06:47 15.6 15.1 97 57 0.3 1.1 1014.8 0.3030 2.6000
06:57 15.6 15.1 97 90 0.3 1.1 1015 0.4040 2.7000
07:07 15.6 15.1 97 90 0.3 1.1 1015 0.4040 2.7000
07:17 15.6 15.1 97 90 0.3 1.1 1015.1 0.3030 2.7000
07:27 15.5 15 97 74 0.8 1.4 1015.2 0.1010 2.7000
07:38 15.3 14.8 97 90 0.3 1.1 1015.2 0.1010 2.7000
07:47 15.2 14.7 97 90 0.3 1.1 1015.3 0.0000 2.7000
07:57 15 14.5 97 57 0.3 1.1 1015.3 0.0000 2.7000
08:08 15 14.5 97 90 0.3 1.7 1015.3 0.0000 2.7000
08:18 15 14.5 97 58 0.3 1.4 1015.3 0.0000 2.7000
08:28 15 14.5 97 53 0.3 1.7 1015.3 0.0000 2.7000
08:38 15.1 14.6 97 90 0.3 1.1 1015.2 0.0000 2.7000
08:48 15.4 14.9 97 90 0.3 1.1 1015.1 0.0000 2.7000
08:58 15.7 15.2 97 90 0.3 1.4 1015.2 0.0000 2.7000
09:08 16 15.5 97 38 0.3 1.4 1015.3 0.0000 2.7000
09:18 16.1 15.5 96 65 0.8 1.7 1015.3 0.0000 2.7000
09:28 16.3 15.5 95 56 0.8 1.7 1015.3 0.0000 2.7000
09:38 16.4 15.3 93 53 0.8 2.8 1015.3 0.0000 2.7000
09:48 16.7 14.9 89 78 1.1 2.5 1015.5 0.0000 2.7000
09:59 17 14.3 84 119 0.8 2.2 1015.6 0.0000 2.7000
10:08 17.4 13.3 77 90 1.1 3.6 1015.6 0.0000 2.7000
10:18 18 13.1 73 62 0.8 2.5 1015.6 0.0000 2.7000
10:29 19 12.7 67 98 1.1 3.3 1015.7 0.0000 2.7000
10:39 20 12.7 63 90 1.1 3.9 1015.7 0.0000 2.7000
10:49 21.1 12.5 58 79 1.1 3.6 1015.7 0.0000 2.7000
10:59 21.3 12.7 58 36 0.8 2.2 1015.7 0.0000 2.7000
11:09 21.5 12.4 56 90 0.8 1.7 1015.9 0.0000 2.7000
11:19 20.8 11.4 55 90 1.1 2.2 1015.8 0.0000 2.7000
11:34 21 11.9 56 78 0.8 2.2 1015.8 0.0000 2.7000
11:39 21.2 11.8 55 80 0.8 0.8 1015.8 0.0000 2.7000
11:49 21.1 11.7 55 67 0.8 2.2 1015.8 0.0000 2.7000
12:00 22.4 12.1 52 37 0.8 2.2 1015.8 0.0000 2.7000
12:10 22.5 12.2 52 90 0.8 3.3 1015.8 0.0000 2.7000
12:20 23.1 12.1 50 69 0.8 2.8 1015.8 0.0000 2.7000
12:30 22.7 11.8 50 63 0.8 1.7 1015.8 0.0000 2.7000
12:40 23.4 12.1 49 145 1.1 3.3 1015.7 0.0000 2.7000
12:50 24 11.3 45 104 1.4 2.8 1015.8 0.0000 2.7000
13:00 23.6 11.6 47 90 0.8 1.4 1015.8 0.0000 2.7000
13:11 23.1 11.5 48 63 0.8 1.7 1015.7 0.0000 2.7000
13:20 22.8 11.5 49 0 0.8 1.7 1015.6 0.0000 2.7000
13:30 23.2 11.3 47 63 0.8 1.7 1015.6 0.0000 2.7000
13:41 23 11.1 47 101 0.8 2.5 1015.5 0.0000 2.7000
13:51 23.7 12.1 48 34 0.8 1.7 1015.4 0.0000 2.7000
14:01 24.5 12.1 46 90 0.8 1.7 1015.3 0.0000 2.7000
14:10 24.8 12.4 46 40 0.8 1.4 1015.3 0.0000 2.7000
14:21 24.8 11.7 44 45 0.8 2.2 1015.3 0.0000 2.7000
14:31 24.6 11.6 44 68 1.1 2.8 1015.4 0.0000 2.7000
14:41 24.8 12.1 45 126 1.1 3.9 1015.4 0.0000 2.7000
14:51 24.4 11.7 45 150 1.1 2.8 1015.3 0.0000 2.7000
15:01 24.7 11.6 44 113 0.8 2.2 1015.4 0.0000 2.7000
15:11 24.6 11.2 43 14 0.8 2.8 1015.5 0.0000 2.7000
15:21 24.2 10.8 43 23 1.1 2.8 1015.4 0.0000 2.7000
15:32 23.5 11.2 46 30 0.8 1.4 1015.5 0.0000 2.7000
15:42 23.3 11.7 48 180 0.3 1.1 1015.4 0.0000 2.7000
15:51 23 11.1 47 53 0.3 1.7 1015.4 0.0000 2.7000
16:02 22.2 10.4 47 45 0.3 1.4 1015.4 0.0000 2.7000
16:12 22.3 10.5 47 90 0.8 2.2 1015.3 0.0000 2.7000
16:22 22.5 10.6 47 90 0.8 2.5 1015.5 0.0000 2.7000
16:31 23.2 11 46 62 0.8 2.2 1015.5 0.0000 2.7000
16:42 23.3 10.4 44 153 1.1 2.8 1015.5 0.0000 2.7000
16:52 23.6 10.6 44 24 0.8 3.6 1015.5 0.0000 2.7000
17:02 23.7 10.4 43 90 1.1 2.5 1015.5 0.0000 2.7000
17:12 22.4 9.2 43 63 1.1 2.8 1015.6 0.0000 2.7000
17:22 21.3 8.9 45 54 0.8 2.2 1015.6 0.0000 2.7000
17:32 20.6 9.2 48 122 0.8 2.2 1015.7 0.0000 2.7000
17:42 20.1 8.8 48 45 0.3 1.7 1015.7 0.0000 2.7000
17:53 19.7 8.4 48 30 0.8 2.5 1015.8 0.0000 2.7000
18:03 19.3 8.6 50 62 0.8 2.2 1015.8 0.0000 2.7000
18:12 19 8.6 51 34 0.3 1.1 1015.9 0.0000 2.7000
18:21 18.6 9.1 54 50 0.3 1.4 1016 0.0000 2.7000
18:32 18.1 9.2 56 23 0.3 1.4 1016 0.0000 2.7000
18:42 17.4 9.1 58 54 0.3 1.1 1016.1 0.0000 2.7000
18:52 16.9 8.3 57 45 0.3 1.4 1016.2 0.0000 2.7000
18:57 16.6 8.8 60 45 0.3 1.1 1016.1 0.0000 2.7000
19:12 15.8 8.8 63 24 0.3 0.3 1016.2 0.0000 2.7000
19:45 14.3 8.3 67 90 0.3 1.7 1016.5 0.0000 2.7000
19:56 14 8.2 68 60 0.3 1.1 1016.5 0.0000 2.7000
20:06 13.7 8.1 69 90 0.3 1.4 1016.8 0.0000 2.7000
20:16 13.4 8 70 90 0.3 1.1 1016.9 0.0000 2.7000
20:26 13.3 8.4 72 90 0.3 1.1 1017 0.0000 2.7000
20:36 13.2 8.5 73 90 0.3 0.8 1017.1 0.0000 2.7000
20:46 13.1 8.6 74 90 0.3 1.1 1017.1 0.0000 2.7000
20:56 12.9 8.6 75 90 0.3 1.1 1017.2 0.0000 2.7000
21:07 12.8 8.7 76 90 0.3 1.1 1017.3 0.0000 2.7000
21:16 12.7 8.8 77 55 0.3 1.1 1017.3 0.0000 2.7000
21:26 12.6 8.7 77 90 0.3 1.4 1017.3 0.0000 2.7000
21:36 12.5 8.8 78 48 0.3 1.1 1017.3 0.0000 2.7000
21:47 12.5 9 79 56 0.3 1.1 1017.2 0.0000 2.7000
21:57 12.5 8.8 78 60 0.3 1.1 1017.3 0.0000 2.7000
22:06 12.4 8.9 79 45 0.3 1.1 1017.3 0.0000 2.7000
22:17 12.4 8.9 79 90 0.3 0.8 1017.4 0.0000 2.7000
22:27 12.5 9 79 48 0.3 1.1 1017.3 0.0000 2.7000
22:37 12.5 9 79 57 0.3 1.1 1017.3 0.0000 2.7000
22:47 12.3 8.8 79 90 0.3 1.1 1017.4 0.0000 2.7000
22:57 12.1 8.8 80 52 0.3 1.1 1017.5 0.0000 2.7000
23:07 11.9 8.7 81 52 0.3 1.1 1017.4 0.0000 2.7000
23:17 11.6 8.5 81 59 0.3 1.1 1017.4 0.0000 2.7000
23:28 11.5 8.5 82 90 0.3 1.1 1017.5 0.0000 2.7000
23:38 11.3 8.5 83 59 0.3 1.1 1017.6 0.0000 2.7000
23:47 11.2 8.6 84 90 0.3 0.8 1017.6 0.0000 2.7000
23:57 11.1 8.5 84 60 0.3 1.1 1017.7 0.0000

TAGESSTATISTIK

2021-09-17
TEMPERATUR
MITTEL
17.6
MAXIMUM
24.8
14:10
MINIMUM
11.1
23:57
LUFTDRUCK
MITTEL
1015.7
MAXIMUM
1017.7
23:57
MINIMUM
1014.3
04:57
TAUPUNKT
MITTEL
12.3
MAXIMUM
15.7
00:07
MINIMUM
8.0
20:16
FEUCHTIGKEIT
MITTEL
74
MAXIMUM
97
04:27
MINIMUM
43
15:11
WINDSTÄRKE
MITTEL
0.5
MAXIMUM
1.4
12:50
WINDBÖE
MITTEL
1.6
MAXIMUM
3.9
10:39
WINDRICHTUNG
VORHERRSCHENDE
O
50%
N
1.4
NO
42.8
O
50.0
SO
5.1
S
0.7
SW
0.0
W
0.0
NW
0.0
NIEDERSCHLAG
REGEN STUNDE
3.9
REGEN TAG
2.7
TEMPERATUR (°C)
MINIMUM
11.1
MAXIMUM
24.8
MITTEL
17.6
LUFTDRUCK (hpa)
MINIMUM
1014.3
MAXIMUM
1017.7
MITTEL
1015.7
MESSGERÄT